createdAt,value
2018-06-30T00:02:07.747Z,2.70
2018-06-30T00:04:39.606Z,3.20
2018-06-30T00:07:07.017Z,3.20
2018-06-30T00:09:34.239Z,3.10
2018-06-30T00:12:01.538Z,3.10
2018-06-30T00:14:28.774Z,3.10
2018-06-30T00:16:56.055Z,3.10
2018-06-30T00:19:23.426Z,2.70
2018-06-30T00:21:50.672Z,3.45
2018-06-30T00:24:17.958Z,2.90
2018-06-30T00:26:45.210Z,2.57
2018-06-30T00:29:12.489Z,3.20
2018-06-30T00:31:39.757Z,2.80
2018-06-30T00:34:07.036Z,2.80
2018-06-30T00:36:34.304Z,3.50
2018-06-30T00:39:01.540Z,3.20
2018-06-30T00:41:28.796Z,3.00
2018-06-30T00:43:56.054Z,2.80
2018-06-30T00:46:23.287Z,3.60
2018-06-30T00:48:50.512Z,3.15
2018-06-30T00:51:17.758Z,3.40
2018-06-30T00:53:45.009Z,3.58
2018-06-30T00:56:12.264Z,3.22
2018-06-30T00:58:39.473Z,3.20
2018-06-30T01:01:06.740Z,3.20
2018-06-30T01:03:34.002Z,3.17
2018-06-30T01:06:01.280Z,3.27
2018-06-30T01:08:28.530Z,3.25
2018-06-30T01:10:55.801Z,3.50
2018-06-30T01:13:23.035Z,3.20
2018-06-30T01:15:50.288Z,3.37
2018-06-30T01:18:17.585Z,3.00
2018-06-30T01:20:44.796Z,3.30
2018-06-30T01:23:12.033Z,3.30
2018-06-30T01:25:39.316Z,3.30
2018-06-30T01:28:06.538Z,3.30
2018-06-30T01:30:33.893Z,3.00
2018-06-30T01:33:01.144Z,3.10
2018-06-30T01:35:28.343Z,2.93
2018-06-30T01:37:55.608Z,2.35
2018-06-30T01:40:22.840Z,2.20
2018-06-30T01:42:50.051Z,2.30
2018-06-30T01:45:17.298Z,2.60
2018-06-30T01:47:44.518Z,2.50
2018-06-30T01:50:11.739Z,3.00
2018-06-30T01:52:38.990Z,2.40
2018-06-30T01:55:06.182Z,2.60
2018-06-30T01:57:33.415Z,2.42
2018-06-30T02:00:00.640Z,2.62
2018-06-30T02:02:27.862Z,2.47
2018-06-30T02:04:55.074Z,1.90
2018-06-30T02:07:22.352Z,1.90
2018-06-30T02:09:49.562Z,2.12
2018-06-30T02:12:16.845Z,2.00
2018-06-30T02:14:44.178Z,1.90
2018-06-30T02:17:11.428Z,1.98
2018-06-30T02:19:38.637Z,1.70
2018-06-30T02:22:05.913Z,1.80
2018-06-30T02:24:33.145Z,2.00
2018-06-30T02:27:00.392Z,2.02
2018-06-30T02:29:27.625Z,2.00
2018-06-30T02:31:54.978Z,2.17
2018-06-30T02:34:22.420Z,2.00
2018-06-30T02:36:49.624Z,1.70
2018-06-30T02:39:16.840Z,1.70
2018-06-30T02:41:44.192Z,1.85
2018-06-30T02:44:11.512Z,1.80
2018-06-30T02:46:38.796Z,1.80
2018-06-30T02:49:06.086Z,1.72
2018-06-30T02:51:33.365Z,2.00
2018-06-30T02:54:00.618Z,1.80
2018-06-30T02:56:27.869Z,1.60
2018-06-30T02:58:55.139Z,1.80
2018-06-30T03:01:22.423Z,1.80
2018-06-30T03:03:49.694Z,1.60
2018-06-30T03:06:18.027Z,1.50
2018-06-30T03:08:45.266Z,1.70
2018-06-30T03:11:12.611Z,1.70
2018-06-30T03:13:39.865Z,1.70
2018-06-30T03:16:07.239Z,1.60
2018-06-30T03:18:34.495Z,1.37
2018-06-30T03:21:01.721Z,1.60
2018-06-30T03:23:29.029Z,1.70
2018-06-30T03:25:56.306Z,1.60
2018-06-30T03:28:23.533Z,1.30
2018-06-30T03:30:50.750Z,1.60
2018-06-30T03:33:17.970Z,1.45
2018-06-30T03:35:45.187Z,1.60
2018-06-30T03:38:12.447Z,1.60
2018-06-30T03:40:39.975Z,1.50
2018-06-30T07:01:18.060Z,3.47
2018-06-30T07:03:45.418Z,4.40
2018-06-30T07:06:12.663Z,1.60
2018-06-30T07:08:39.908Z,1.32
2018-06-30T07:11:07.248Z,1.40
2018-06-30T07:13:34.473Z,1.60
2018-06-30T07:16:01.885Z,1.50
2018-06-30T07:18:29.133Z,2.45
2018-06-30T07:20:56.348Z,1.37
2018-06-30T07:23:23.730Z,1.47
2018-06-30T07:25:51.068Z,1.42
2018-06-30T07:28:18.288Z,1.70
2018-06-30T07:30:45.658Z,1.40
2018-06-30T07:33:13.012Z,1.55
2018-06-30T07:35:40.465Z,1.67
2018-06-30T07:38:14.590Z,1.30
2018-06-30T07:40:41.836Z,1.00
2018-06-30T07:43:09.103Z,2.10
2018-06-30T07:45:36.501Z,1.22
2018-06-30T07:48:03.783Z,1.20
2018-06-30T07:50:31.256Z,1.12
2018-06-30T07:52:58.284Z,1.10
2018-06-30T07:55:25.537Z,1.20
2018-06-30T07:57:52.748Z,1.17
2018-06-30T08:00:19.960Z,1.20
2018-06-30T08:02:47.204Z,0.90
2018-06-30T08:05:14.497Z,1.10
2018-06-30T08:07:41.769Z,1.20
2018-06-30T08:10:09.006Z,1.12
2018-06-30T08:12:36.233Z,1.10
2018-06-30T08:15:03.811Z,1.27
2018-06-30T08:17:31.028Z,1.10
2018-06-30T08:19:58.283Z,1.37
2018-06-30T08:22:25.584Z,1.10
2018-06-30T08:24:53.052Z,1.15
2018-06-30T08:27:20.365Z,1.20
2018-06-30T08:29:47.704Z,1.10
2018-06-30T08:32:14.950Z,1.60
2018-06-30T08:34:42.203Z,1.12
2018-06-30T08:37:09.453Z,1.50
2018-06-30T08:39:36.783Z,1.90
2018-06-30T08:42:04.067Z,2.10
2018-06-30T08:44:31.375Z,1.90
2018-06-30T08:46:58.586Z,1.50
2018-06-30T08:49:25.916Z,1.40
2018-06-30T08:51:53.179Z,2.00
2018-06-30T08:54:20.465Z,1.35
2018-06-30T08:56:47.783Z,1.22
2018-06-30T08:59:15.222Z,1.20
2018-06-30T09:01:42.817Z,1.20
2018-06-30T09:04:10.200Z,1.30
2018-06-30T09:06:37.434Z,1.40
2018-06-30T09:09:07.045Z,1.30
2018-06-30T09:11:34.271Z,1.32
2018-06-30T09:14:01.543Z,1.90
2018-06-30T09:16:28.967Z,1.40
2018-06-30T09:18:56.228Z,1.60
2018-06-30T09:21:23.580Z,1.50
2018-06-30T09:23:50.941Z,1.35
2018-06-30T09:26:18.152Z,2.00
2018-06-30T09:28:45.489Z,2.05
2018-06-30T09:31:12.749Z,1.40
2018-06-30T09:33:40.083Z,1.30
2018-06-30T09:36:07.507Z,1.50
2018-06-30T09:38:34.842Z,1.40
2018-06-30T09:41:02.104Z,1.20
2018-06-30T09:43:29.320Z,1.05
2018-06-30T09:45:56.661Z,1.50
2018-06-30T09:48:23.864Z,1.20
2018-06-30T09:50:51.176Z,1.20
2018-06-30T09:53:18.402Z,1.00
2018-06-30T09:55:45.670Z,1.30
2018-06-30T09:58:12.910Z,1.00
2018-06-30T10:00:46.299Z,1.07
2018-06-30T10:08:07.220Z,1.10
2018-06-30T10:10:34.521Z,1.20
2018-06-30T10:13:01.781Z,1.10
2018-06-30T10:54:37.100Z,1.30
2018-06-30T10:57:04.348Z,1.43
2018-06-30T11:06:51.665Z,1.00
2018-06-30T11:09:18.899Z,1.30
2018-06-30T11:11:46.137Z,1.30
2018-06-30T11:14:13.370Z,1.20
2018-06-30T11:21:34.081Z,1.00
2018-06-30T11:24:01.430Z,1.60
2018-06-30T11:26:28.800Z,1.00
2018-06-30T11:33:49.678Z,1.10
2018-06-30T11:36:17.273Z,1.40
2018-06-30T11:41:11.428Z,1.25
2018-06-30T11:43:38.620Z,1.20
2018-06-30T11:46:05.884Z,1.40
2018-06-30T11:48:33.128Z,1.30
2018-06-30T11:51:00.374Z,1.20
2018-06-30T11:53:27.597Z,2.22
2018-06-30T11:55:54.877Z,1.30
2018-06-30T11:58:22.156Z,1.30
2018-06-30T12:00:49.386Z,1.10
2018-06-30T12:03:16.691Z,2.45
2018-06-30T12:05:44.017Z,3.83
2018-06-30T12:08:11.294Z,2.12
2018-06-30T12:10:38.637Z,3.25
2018-06-30T12:13:06.008Z,1.80
2018-06-30T12:15:33.312Z,1.65
2018-06-30T12:18:00.890Z,1.40
2018-06-30T12:20:28.140Z,1.30
2018-06-30T12:22:55.370Z,1.20
2018-06-30T12:32:43.115Z,1.80
2018-06-30T12:40:03.936Z,1.20
2018-06-30T12:42:31.272Z,1.82
2018-06-30T12:44:58.509Z,1.52
2018-06-30T12:47:25.740Z,1.20
2018-06-30T12:49:53.645Z,1.90
2018-06-30T13:02:11.185Z,1.57
2018-06-30T13:04:38.392Z,1.27
2018-06-30T13:07:05.771Z,1.40
2018-06-30T13:09:32.948Z,1.40
2018-06-30T13:12:00.117Z,1.30
2018-06-30T13:14:27.363Z,1.30
2018-06-30T13:16:54.571Z,1.00
2018-06-30T13:19:21.768Z,1.00
2018-06-30T13:34:02.956Z,1.40
2018-06-30T13:36:30.324Z,1.20
2018-06-30T13:38:57.556Z,1.40
2018-06-30T13:41:24.772Z,1.10
2018-06-30T13:43:52.280Z,1.00
2018-06-30T13:46:19.585Z,1.10
2018-06-30T13:48:46.818Z,1.20
2018-06-30T13:51:14.132Z,1.22
2018-06-30T13:53:41.372Z,1.20
2018-06-30T14:42:37.152Z,1.10
2018-06-30T14:45:04.460Z,1.20
2018-06-30T14:47:31.664Z,1.05
2018-06-30T14:49:58.916Z,1.30
2018-06-30T14:52:26.214Z,1.30
2018-06-30T14:54:53.475Z,1.42
2018-06-30T14:57:20.754Z,1.27
2018-06-30T14:59:47.948Z,1.30
2018-06-30T15:02:15.201Z,1.20
2018-06-30T15:04:42.410Z,1.70
2018-06-30T15:07:09.678Z,1.40
2018-06-30T15:09:37.036Z,1.35
2018-06-30T15:12:04.388Z,1.60
2018-06-30T15:14:31.610Z,1.40
2018-06-30T15:21:52.475Z,0.98
2018-06-30T15:24:20.141Z,1.45
2018-06-30T15:26:47.461Z,1.20
2018-06-30T15:29:14.704Z,1.30
2018-06-30T15:41:29.244Z,1.50
2018-06-30T15:43:56.512Z,1.30
2018-06-30T16:18:12.744Z,1.40
2018-06-30T16:47:34.660Z,1.20
2018-06-30T16:50:02.000Z,2.05
2018-06-30T16:52:29.181Z,1.92
2018-06-30T17:31:38.356Z,1.65
2018-06-30T17:34:05.703Z,2.05
2018-06-30T17:36:33.013Z,2.30
2018-06-30T17:39:00.312Z,2.00
2018-06-30T17:41:27.510Z,1.60
2018-06-30T17:46:21.474Z,2.20
2018-06-30T17:48:48.820Z,4.45
2018-06-30T17:51:16.117Z,1.70
2018-06-30T17:53:43.293Z,3.25
2018-06-30T18:08:24.743Z,2.30
2018-06-30T18:10:52.228Z,1.83
2018-06-30T18:13:19.719Z,1.40
2018-06-30T18:15:47.159Z,1.52
2018-06-30T18:18:14.455Z,1.93
2018-06-30T18:20:41.760Z,1.90
2018-06-30T18:23:09.043Z,1.70
2018-06-30T18:25:36.268Z,2.50
2018-06-30T18:28:03.611Z,1.63
2018-06-30T18:30:30.840Z,1.50
2018-06-30T18:32:58.144Z,1.90
2018-06-30T18:35:25.395Z,2.72
2018-06-30T18:37:52.767Z,3.40
2018-06-30T18:40:20.000Z,2.60
2018-06-30T18:42:47.229Z,1.60
2018-06-30T18:45:14.453Z,1.90
2018-06-30T18:47:41.654Z,1.70
2018-06-30T18:50:08.883Z,1.90
2018-06-30T18:52:36.178Z,1.70
2018-06-30T18:55:03.648Z,1.75
2018-06-30T18:57:30.824Z,1.50
2018-06-30T18:59:58.158Z,1.60
2018-06-30T19:02:25.540Z,1.63
2018-06-30T19:04:52.736Z,1.70
2018-06-30T19:07:19.961Z,1.87
2018-06-30T19:09:47.306Z,1.57
2018-06-30T19:12:14.522Z,1.83
2018-06-30T19:14:41.721Z,1.90
2018-06-30T19:17:08.928Z,2.37
2018-06-30T19:19:36.311Z,2.03
2018-06-30T19:22:03.505Z,1.80
2018-06-30T19:24:30.712Z,1.80
2018-06-30T19:26:57.992Z,1.70
2018-06-30T19:29:25.189Z,1.50
2018-06-30T19:31:52.456Z,1.30
2018-06-30T19:34:19.767Z,1.50
2018-06-30T19:36:46.962Z,1.40
2018-06-30T19:39:14.214Z,1.40
2018-06-30T19:41:41.553Z,1.70
2018-06-30T19:44:09.275Z,1.57
2018-06-30T19:46:36.507Z,1.40
2018-06-30T19:49:03.772Z,1.50
2018-06-30T19:51:31.019Z,1.60
2018-06-30T19:53:58.241Z,1.47
2018-06-30T19:56:25.465Z,1.65
2018-06-30T19:58:52.668Z,2.00
2018-06-30T20:01:19.865Z,1.70
2018-06-30T20:03:47.088Z,2.40
2018-06-30T20:06:14.327Z,2.50
2018-06-30T20:08:42.347Z,2.70
2018-06-30T20:11:09.556Z,3.40
2018-06-30T20:13:36.866Z,3.02
2018-06-30T20:16:05.197Z,2.10
2018-06-30T20:18:32.412Z,2.40
2018-06-30T20:20:59.711Z,1.73
2018-06-30T20:23:26.908Z,1.90
2018-06-30T20:25:54.216Z,1.80
2018-06-30T20:28:21.460Z,1.70
2018-06-30T20:30:48.668Z,1.80
2018-06-30T20:33:15.907Z,1.70
2018-06-30T20:35:44.104Z,2.05
2018-06-30T20:38:11.406Z,2.02
2018-06-30T20:40:38.676Z,3.50
2018-06-30T20:43:05.967Z,5.10
2018-06-30T20:45:33.348Z,5.00
2018-06-30T20:48:00.541Z,4.50
2018-06-30T20:50:27.817Z,4.95
2018-06-30T20:52:55.055Z,3.70
2018-06-30T20:55:22.353Z,3.20
2018-06-30T20:57:49.835Z,2.90
2018-06-30T21:00:17.211Z,2.70
2018-06-30T21:02:44.422Z,2.22
2018-06-30T21:05:11.647Z,3.37
2018-06-30T21:07:38.901Z,4.30
2018-06-30T21:10:06.223Z,4.53
2018-06-30T21:12:33.595Z,3.30
2018-06-30T21:15:00.842Z,2.65
2018-06-30T21:17:29.166Z,2.30
2018-06-30T21:19:57.464Z,2.00
2018-06-30T21:22:24.797Z,2.12
2018-06-30T21:24:52.077Z,2.10
2018-06-30T21:27:19.276Z,2.47
2018-06-30T21:29:46.499Z,3.00
2018-06-30T21:32:13.708Z,2.80
2018-06-30T21:34:41.028Z,2.60
2018-06-30T21:37:08.640Z,2.77
2018-06-30T21:39:35.827Z,2.10
2018-06-30T21:42:03.074Z,1.83
2018-06-30T21:44:30.274Z,2.00
2018-06-30T21:46:57.528Z,1.97
2018-06-30T21:49:24.831Z,1.90
2018-06-30T21:51:52.028Z,1.90
2018-06-30T21:54:19.265Z,1.60
2018-06-30T21:56:46.499Z,1.70
2018-06-30T21:59:13.791Z,2.13
2018-06-30T22:01:41.363Z,1.70
2018-06-30T22:04:08.552Z,1.70
2018-06-30T22:06:35.740Z,2.47
2018-06-30T22:09:05.049Z,1.63
2018-06-30T22:11:32.252Z,1.60
2018-06-30T22:13:59.588Z,1.60
2018-06-30T22:16:26.943Z,1.37
2018-06-30T22:18:54.137Z,2.07
2018-06-30T22:21:21.360Z,1.40
2018-06-30T22:23:48.728Z,1.53
2018-06-30T22:26:15.993Z,1.77
2018-06-30T22:28:43.213Z,1.77
2018-06-30T22:31:10.472Z,2.00
2018-06-30T22:33:37.769Z,2.30
2018-06-30T22:36:05.372Z,2.07
2018-06-30T22:38:32.642Z,2.60
2018-06-30T22:40:59.886Z,2.70
2018-06-30T22:43:27.169Z,3.13
2018-06-30T22:45:54.489Z,2.60
2018-06-30T22:48:21.787Z,3.00
2018-06-30T22:50:48.978Z,3.17
2018-06-30T22:53:16.216Z,3.30
2018-06-30T22:55:43.451Z,3.20
2018-06-30T22:58:10.649Z,2.57
2018-06-30T23:00:37.957Z,2.77
2018-06-30T23:03:09.528Z,2.90
2018-06-30T23:05:37.147Z,3.23
2018-06-30T23:08:04.400Z,2.57
2018-06-30T23:10:32.106Z,2.63
2018-06-30T23:17:53.107Z,2.83
2018-06-30T23:20:20.348Z,2.23
2018-06-30T23:22:55.650Z,2.20
2018-06-30T23:25:23.948Z,2.03
2018-06-30T23:27:51.253Z,2.30
2018-06-30T23:30:18.430Z,2.40
2018-06-30T23:32:45.621Z,2.43
2018-06-30T23:35:12.932Z,1.90
2018-06-30T23:37:40.138Z,2.27
2018-06-30T23:40:07.529Z,1.80
2018-06-30T23:42:34.816Z,2.10
2018-06-30T23:45:02.073Z,1.70
2018-06-30T23:47:29.360Z,1.50
2018-06-30T23:49:57.509Z,1.50
2018-06-30T23:52:24.767Z,1.90
2018-06-30T23:54:52.013Z,1.73
2018-06-30T23:57:19.218Z,1.97
2018-06-30T23:59:46.453Z,1.70
